SAS2814 LEAL-EKCH
Flight info
| Callsign | SAS2814 |
|---|---|
| Flight time | 3h 4m |
| Altitude | 32000 |
| Route | MITOS DCT ARGOR DCT EBROX/N0457F340 DCT LATRO/N0451F360 DCT OLOXO DCT OKABI DCT TOU DCT ADABI DCT BOKNO UN858 VANAD UN874 ARSAF DCT EGOZE DCT CMB DCT VEKIN DCT ADUTO N873 VICOT/N0448F370 DCT TALSA P729 TUDLO |
| Aircraft | A320/M-SDE3FGHIRWY/LB1 |
Departure
| Time | 2026-04-23 23:23 |
|---|---|
| Airport | Alicante-Elche Miguel Hernández Airport (LEAL) |
Arrival
| Time | 2026-04-24 02:28 |
|---|---|
| Airport | Copenhagen Kastrup Airport (EKCH) |
| Time | Latitude | Longitude | Altitude | Speed | Heading |
|---|---|---|---|---|---|
| 2026-04-23 22:45 | 38.28615 | -0.56001 | 105 ft | 0 kts | 5° |
| 2026-04-23 23:12 | 38.28614 | -0.56001 | 105 ft | 2 kts | 5° |
| 2026-04-23 23:12 | 38.28598 | -0.56004 | 104 ft | 2 kts | 354° |
| 2026-04-23 23:13 | 38.28585 | -0.55998 | 104 ft | 0 kts | 300° |
| 2026-04-23 23:16 | 38.28585 | -0.56008 | 103 ft | 1 kts | 268° |
| 2026-04-23 23:16 | 38.28582 | -0.56011 | 104 ft | 0 kts | 237° |
| 2026-04-23 23:16 | 38.28576 | -0.56017 | 105 ft | 4 kts | 215° |
| 2026-04-23 23:17 | 38.28544 | -0.56017 | 106 ft | 5 kts | 175° |
| 2026-04-23 23:17 | 38.28510 | -0.56019 | 107 ft | 6 kts | 188° |
| 2026-04-23 23:17 | 38.28457 | -0.56029 | 107 ft | 10 kts | 191° |
| 2026-04-23 23:17 | 38.28436 | -0.56115 | 107 ft | 13 kts | 279° |
| 2026-04-23 23:18 | 38.28456 | -0.56250 | 106 ft | 17 kts | 280° |
| 2026-04-23 23:18 | 38.28478 | -0.56406 | 113 ft | 18 kts | 280° |
| 2026-04-23 23:18 | 38.28501 | -0.56558 | 114 ft | 18 kts | 281° |
| 2026-04-23 23:18 | 38.28521 | -0.56713 | 118 ft | 18 kts | 279° |
| 2026-04-23 23:19 | 38.28541 | -0.56857 | 127 ft | 15 kts | 280° |
| 2026-04-23 23:19 | 38.28557 | -0.56973 | 133 ft | 13 kts | 281° |
| 2026-04-23 23:19 | 38.28573 | -0.57089 | 137 ft | 14 kts | 279° |
| 2026-04-23 23:19 | 38.28588 | -0.57202 | 142 ft | 12 kts | 279° |
| 2026-04-23 23:20 | 38.28601 | -0.57293 | 146 ft | 9 kts | 279° |
| 2026-04-23 23:20 | 38.28612 | -0.57367 | 148 ft | 8 kts | 281° |
| 2026-04-23 23:20 | 38.28621 | -0.57434 | 150 ft | 7 kts | 278° |
| 2026-04-23 23:20 | 38.28614 | -0.57489 | 152 ft | 5 kts | 221° |
| 2026-04-23 23:21 | 38.28583 | -0.57508 | 153 ft | 4 kts | 205° |
| 2026-04-23 23:21 | 38.28559 | -0.57513 | 154 ft | 3 kts | 187° |
| 2026-04-23 23:21 | 38.28535 | -0.57517 | 154 ft | 3 kts | 186° |
| 2026-04-23 23:21 | 38.28509 | -0.57520 | 155 ft | 4 kts | 186° |
| 2026-04-23 23:22 | 38.28475 | -0.57517 | 155 ft | 6 kts | 161° |
| 2026-04-23 23:22 | 38.28448 | -0.57462 | 153 ft | 10 kts | 107° |
| 2026-04-23 23:22 | 38.28405 | -0.57190 | 141 ft | 65 kts | 99° |
| 2026-04-23 23:22 | 38.28295 | -0.56354 | 112 ft | 123 kts | 99° |
| 2026-04-23 23:23 | 38.28117 | -0.55096 | 108 ft | 163 kts | 101° |
| 2026-04-23 23:23 | 38.27898 | -0.53722 | 697 ft | 158 kts | 102° |
| 2026-04-23 23:23 | 38.27667 | -0.52327 | 1077 ft | 172 kts | 99° |
| 2026-04-23 23:23 | 38.27413 | -0.50705 | 1503 ft | 199 kts | 96° |
| 2026-04-23 23:24 | 38.27185 | -0.48995 | 2558 ft | 193 kts | 92° |
| 2026-04-23 23:24 | 38.27291 | -0.47261 | 3314 ft | 211 kts | 70° |
| 2026-04-23 23:24 | 38.28095 | -0.45508 | 3610 ft | 253 kts | 52° |
| 2026-04-23 23:24 | 38.29331 | -0.43850 | 4427 ft | 265 kts | 49° |
| 2026-04-23 23:25 | 38.30641 | -0.42070 | 5297 ft | 271 kts | 51° |
| 2026-04-23 23:25 | 38.31917 | -0.40180 | 5826 ft | 296 kts | 54° |
| 2026-04-23 23:25 | 38.33032 | -0.37841 | 5975 ft | 324 kts | 65° |
| 2026-04-23 23:25 | 38.34022 | -0.35119 | 6008 ft | 354 kts | 69° |
| 2026-04-23 23:26 | 38.34969 | -0.32139 | 5997 ft | 360 kts | 71° |
| 2026-04-23 23:26 | 38.35829 | -0.29250 | 6000 ft | 337 kts | 71° |
| 2026-04-23 23:26 | 38.36627 | -0.26569 | 6226 ft | 311 kts | 71° |
| 2026-04-23 23:26 | 38.37408 | -0.24094 | 7060 ft | 291 kts | 70° |
| 2026-04-23 23:27 | 38.38173 | -0.21763 | 8188 ft | 283 kts | 69° |
| 2026-04-23 23:27 | 38.38943 | -0.19441 | 8943 ft | 287 kts | 69° |
| 2026-04-23 23:27 | 38.39729 | -0.17081 | 9616 ft | 292 kts | 69° |
| 2026-04-23 23:27 | 38.40534 | -0.14667 | 10251 ft | 299 kts | 69° |
| 2026-04-23 23:28 | 38.41371 | -0.12146 | 10477 ft | 320 kts | 69° |
| 2026-04-23 23:28 | 38.42266 | -0.09440 | 10611 ft | 343 kts | 69° |
| 2026-04-23 23:28 | 38.43333 | -0.06609 | 10736 ft | 365 kts | 60° |
| 2026-04-23 23:28 | 38.44917 | -0.03985 | 11021 ft | 381 kts | 46° |
| 2026-04-23 23:29 | 38.46980 | -0.01820 | 11540 ft | 388 kts | 33° |
| 2026-04-23 23:29 | 38.49404 | -0.00261 | 12063 ft | 395 kts | 20° |
| 2026-04-23 23:29 | 38.52071 | 0.00635 | 12582 ft | 399 kts | 12° |
| 2026-04-23 23:29 | 38.54787 | 0.01396 | 13200 ft | 402 kts | 12° |
| 2026-04-23 23:30 | 38.57535 | 0.02173 | 13715 ft | 407 kts | 11° |
| 2026-04-23 23:30 | 38.60348 | 0.02975 | 14309 ft | 409 kts | 11° |
| 2026-04-23 23:30 | 38.62188 | 0.03501 | 14657 ft | 411 kts | 11° |
| 2026-04-23 23:30 | 38.65003 | 0.04304 | 15160 ft | 415 kts | 11° |
| 2026-04-23 23:31 | 38.67813 | 0.05105 | 15792 ft | 415 kts | 11° |
| 2026-04-23 23:31 | 38.70636 | 0.05906 | 16038 ft | 416 kts | 11° |
| 2026-04-23 23:31 | 38.73463 | 0.06709 | 16223 ft | 418 kts | 12° |
| 2026-04-23 23:31 | 38.76310 | 0.07521 | 16744 ft | 421 kts | 11° |
| 2026-04-23 23:32 | 38.79179 | 0.08341 | 17345 ft | 423 kts | 11° |
| 2026-04-23 23:32 | 38.82055 | 0.09160 | 17898 ft | 426 kts | 11° |
| 2026-04-23 23:32 | 38.85004 | 0.09998 | 18451 ft | 429 kts | 11° |
| 2026-04-23 23:32 | 38.87922 | 0.10829 | 18934 ft | 432 kts | 11° |
| 2026-04-23 23:33 | 38.90858 | 0.11668 | 19449 ft | 432 kts | 11° |
| 2026-04-23 23:33 | 38.93798 | 0.12508 | 20016 ft | 433 kts | 11° |
| 2026-04-23 23:33 | 38.96744 | 0.13352 | 20500 ft | 435 kts | 12° |
| 2026-04-23 23:33 | 38.99702 | 0.14203 | 20944 ft | 437 kts | 12° |
| 2026-04-23 23:34 | 39.02673 | 0.15061 | 21377 ft | 439 kts | 12° |
| 2026-04-23 23:34 | 39.05667 | 0.15923 | 21766 ft | 442 kts | 12° |
| 2026-04-23 23:34 | 39.08677 | 0.16786 | 22152 ft | 444 kts | 12° |
| 2026-04-23 23:34 | 39.11705 | 0.17657 | 22527 ft | 446 kts | 12° |
| 2026-04-23 23:35 | 39.14740 | 0.18529 | 22889 ft | 450 kts | 11° |
| 2026-04-23 23:35 | 39.17801 | 0.19409 | 23238 ft | 452 kts | 11° |
| 2026-04-23 23:35 | 39.20874 | 0.20297 | 23597 ft | 454 kts | 11° |
| 2026-04-23 23:35 | 39.23968 | 0.21194 | 23884 ft | 457 kts | 12° |
| 2026-04-23 23:36 | 39.27074 | 0.22097 | 24194 ft | 458 kts | 11° |
| 2026-04-23 23:36 | 39.30193 | 0.23001 | 24472 ft | 460 kts | 12° |
| 2026-04-23 23:36 | 39.33320 | 0.23906 | 24778 ft | 461 kts | 12° |
| 2026-04-23 23:36 | 39.36501 | 0.24824 | 25056 ft | 464 kts | 11° |
| 2026-04-23 23:37 | 39.39655 | 0.25736 | 25363 ft | 465 kts | 12° |
| 2026-04-23 23:37 | 39.42811 | 0.26649 | 25724 ft | 465 kts | 11° |
| 2026-04-23 23:37 | 39.45962 | 0.27564 | 26170 ft | 463 kts | 12° |
| 2026-04-23 23:37 | 39.49098 | 0.28477 | 26562 ft | 463 kts | 11° |
| 2026-04-23 23:38 | 39.52217 | 0.29487 | 27002 ft | 461 kts | 17° |
| 2026-04-23 23:38 | 39.55199 | 0.31024 | 27387 ft | 463 kts | 26° |
| 2026-04-23 23:38 | 39.57996 | 0.33090 | 27819 ft | 462 kts | 31° |
| 2026-04-23 23:38 | 39.60744 | 0.35251 | 28238 ft | 462 kts | 31° |
| 2026-04-23 23:39 | 39.63484 | 0.37406 | 28705 ft | 460 kts | 30° |
| 2026-04-23 23:39 | 39.66213 | 0.39548 | 29156 ft | 458 kts | 30° |
| 2026-04-23 23:39 | 39.68936 | 0.41685 | 29684 ft | 456 kts | 30° |
| 2026-04-23 23:39 | 39.71646 | 0.43813 | 30130 ft | 455 kts | 30° |
| 2026-04-23 23:40 | 39.74350 | 0.45936 | 30525 ft | 454 kts | 30° |
| 2026-04-23 23:40 | 39.77049 | 0.48055 | 30880 ft | 454 kts | 30° |
| 2026-04-23 23:40 | 39.79785 | 0.50208 | 31267 ft | 453 kts | 30° |
| 2026-04-23 23:40 | 39.82475 | 0.52332 | 31632 ft | 452 kts | 30° |
| 2026-04-23 23:41 | 39.85161 | 0.54454 | 32009 ft | 452 kts | 30° |
| 2026-04-23 23:41 | 39.87848 | 0.56579 | 32129 ft | 452 kts | 30° |
| 2026-04-23 23:41 | 39.90532 | 0.58704 | 32159 ft | 451 kts | 30° |
| 2026-04-23 23:42 | 39.95894 | 0.62954 | 32155 ft | 451 kts | 30° |
| 2026-04-23 23:42 | 40.01261 | 0.67205 | 32140 ft | 451 kts | 30° |
| 2026-04-23 23:43 | 40.06615 | 0.71461 | 32151 ft | 449 kts | 30° |
| 2026-04-23 23:43 | 40.11942 | 0.75710 | 32150 ft | 449 kts | 30° |
| 2026-04-23 23:44 | 40.17260 | 0.79948 | 32155 ft | 447 kts | 30° |
| 2026-04-23 23:44 | 40.22600 | 0.84219 | 32155 ft | 446 kts | 30° |
| 2026-04-23 23:45 | 40.27900 | 0.88458 | 32158 ft | 446 kts | 30° |
| 2026-04-23 23:45 | 40.33191 | 0.92691 | 32160 ft | 446 kts | 30° |
| 2026-04-23 23:46 | 40.38479 | 0.96943 | 32161 ft | 446 kts | 30° |
| 2026-04-23 23:46 | 40.43773 | 1.01217 | 32161 ft | 446 kts | 30° |
| 2026-04-23 23:47 | 40.49060 | 1.05492 | 32167 ft | 446 kts | 30° |
| 2026-04-23 23:47 | 40.54344 | 1.09765 | 32165 ft | 446 kts | 30° |
| 2026-04-23 23:48 | 40.59668 | 1.14069 | 32168 ft | 446 kts | 30° |
| 2026-04-23 23:48 | 40.64943 | 1.18345 | 32175 ft | 444 kts | 29° |
| 2026-04-23 23:49 | 40.73097 | 1.23956 | 32174 ft | 439 kts | 14° |
| 2026-04-23 23:49 | 40.79025 | 1.26080 | 32175 ft | 439 kts | 13° |
| 2026-04-23 23:50 | 40.84922 | 1.28202 | 32178 ft | 439 kts | 13° |
| 2026-04-23 23:50 | 40.90809 | 1.30331 | 32188 ft | 439 kts | 13° |
| 2026-04-23 23:51 | 40.96692 | 1.32451 | 32188 ft | 438 kts | 13° |
| 2026-04-23 23:51 | 41.02561 | 1.34564 | 32187 ft | 438 kts | 13° |
| 2026-04-23 23:52 | 41.08435 | 1.36689 | 32192 ft | 438 kts | 13° |
| 2026-04-23 23:52 | 41.14312 | 1.38815 | 32193 ft | 437 kts | 13° |
| 2026-04-23 23:53 | 41.20182 | 1.40940 | 32191 ft | 437 kts | 13° |
| 2026-04-23 23:53 | 41.26047 | 1.43078 | 32196 ft | 437 kts | 13° |
| 2026-04-23 23:54 | 41.31946 | 1.45233 | 32194 ft | 437 kts | 13° |
| 2026-04-23 23:54 | 41.37808 | 1.47361 | 32199 ft | 436 kts | 13° |
| 2026-04-23 23:55 | 41.43648 | 1.49496 | 32203 ft | 435 kts | 13° |
| 2026-04-23 23:55 | 41.49493 | 1.51640 | 32204 ft | 435 kts | 13° |
| 2026-04-23 23:56 | 41.55323 | 1.53782 | 32212 ft | 433 kts | 12° |
| 2026-04-23 23:56 | 41.61101 | 1.55909 | 32215 ft | 430 kts | 12° |
| 2026-04-23 23:57 | 41.66865 | 1.58030 | 32214 ft | 430 kts | 12° |
| 2026-04-23 23:57 | 41.72634 | 1.60152 | 32216 ft | 430 kts | 12° |
| 2026-04-23 23:58 | 41.78475 | 1.61438 | 32212 ft | 423 kts | 357° |
| 2026-04-23 23:58 | 41.84296 | 1.60705 | 32198 ft | 420 kts | 351° |
| 2026-04-23 23:59 | 41.90098 | 1.59785 | 32193 ft | 420 kts | 351° |
| 2026-04-23 23:59 | 41.95907 | 1.58869 | 32189 ft | 420 kts | 351° |
| 2026-04-24 00:00 | 42.00767 | 1.58100 | 32206 ft | 419 kts | 351° |
| 2026-04-24 00:00 | 42.06570 | 1.57176 | 32190 ft | 419 kts | 351° |
| 2026-04-24 00:01 | 42.12343 | 1.56258 | 32192 ft | 419 kts | 351° |
| 2026-04-24 00:01 | 42.18133 | 1.55338 | 32200 ft | 419 kts | 351° |
| 2026-04-24 00:02 | 42.23915 | 1.54418 | 32209 ft | 417 kts | 351° |
| 2026-04-24 00:02 | 42.29680 | 1.53496 | 32198 ft | 417 kts | 351° |
| 2026-04-24 00:03 | 42.35486 | 1.52567 | 32180 ft | 419 kts | 351° |
| 2026-04-24 00:03 | 42.41309 | 1.51635 | 32192 ft | 422 kts | 351° |
| 2026-04-24 00:04 | 42.47137 | 1.50692 | 32180 ft | 422 kts | 351° |
| 2026-04-24 00:04 | 42.52960 | 1.49751 | 32161 ft | 421 kts | 351° |
| 2026-04-24 00:05 | 42.58782 | 1.48815 | 32160 ft | 421 kts | 351° |
| 2026-04-24 00:05 | 42.64601 | 1.47883 | 32146 ft | 420 kts | 351° |
| 2026-04-24 00:06 | 42.70414 | 1.46955 | 32135 ft | 420 kts | 351° |
| 2026-04-24 00:06 | 42.76221 | 1.46026 | 32134 ft | 420 kts | 351° |
| 2026-04-24 00:07 | 42.82028 | 1.45088 | 32122 ft | 420 kts | 351° |
| 2026-04-24 00:07 | 42.87836 | 1.44137 | 32117 ft | 420 kts | 351° |
| 2026-04-24 00:08 | 42.93686 | 1.43191 | 32113 ft | 420 kts | 351° |
| 2026-04-24 00:08 | 42.99496 | 1.42253 | 32113 ft | 420 kts | 351° |
| 2026-04-24 00:09 | 43.05299 | 1.41303 | 32103 ft | 420 kts | 351° |
| 2026-04-24 00:09 | 43.11100 | 1.40359 | 32098 ft | 420 kts | 351° |
| 2026-04-24 00:10 | 43.16902 | 1.39419 | 32098 ft | 420 kts | 351° |
| 2026-04-24 00:10 | 43.22702 | 1.38472 | 32105 ft | 420 kts | 351° |
| 2026-04-24 00:11 | 43.28503 | 1.37523 | 32105 ft | 419 kts | 351° |
| 2026-04-24 00:11 | 43.34293 | 1.36566 | 32099 ft | 419 kts | 351° |
| 2026-04-24 00:12 | 43.40091 | 1.35614 | 32106 ft | 419 kts | 351° |
| 2026-04-24 00:12 | 43.45880 | 1.34660 | 32098 ft | 419 kts | 351° |
| 2026-04-24 00:13 | 43.51667 | 1.33699 | 32102 ft | 419 kts | 351° |
| 2026-04-24 00:13 | 43.57490 | 1.32739 | 32108 ft | 419 kts | 351° |
| 2026-04-24 00:14 | 43.63278 | 1.31783 | 32115 ft | 419 kts | 351° |
| 2026-04-24 00:14 | 43.69059 | 1.30797 | 32113 ft | 418 kts | 349° |
| 2026-04-24 00:15 | 43.74790 | 1.29432 | 32119 ft | 417 kts | 347° |
| 2026-04-24 00:15 | 43.80483 | 1.27849 | 32105 ft | 417 kts | 347° |
| 2026-04-24 00:16 | 43.86180 | 1.26303 | 32108 ft | 418 kts | 347° |
| 2026-04-24 00:16 | 43.91897 | 1.24814 | 32115 ft | 418 kts | 347° |
| 2026-04-24 00:17 | 43.97656 | 1.23343 | 32108 ft | 418 kts | 347° |
| 2026-04-24 00:17 | 44.03376 | 1.21865 | 32116 ft | 418 kts | 347° |
| 2026-04-24 00:18 | 44.09092 | 1.20370 | 32111 ft | 418 kts | 347° |
| 2026-04-24 00:18 | 44.14812 | 1.18873 | 32114 ft | 418 kts | 347° |
| 2026-04-24 00:19 | 44.20534 | 1.17386 | 32114 ft | 418 kts | 347° |
| 2026-04-24 00:19 | 44.26254 | 1.15887 | 32114 ft | 418 kts | 347° |
| 2026-04-24 00:20 | 44.31972 | 1.14385 | 32107 ft | 418 kts | 347° |
| 2026-04-24 00:20 | 44.37704 | 1.12879 | 32121 ft | 420 kts | 347° |
| 2026-04-24 00:21 | 44.43449 | 1.11367 | 32125 ft | 420 kts | 347° |
| 2026-04-24 00:21 | 44.49229 | 1.09838 | 32123 ft | 420 kts | 347° |
| 2026-04-24 00:22 | 44.54976 | 1.08312 | 32125 ft | 420 kts | 347° |
| 2026-04-24 00:22 | 44.60722 | 1.06795 | 32119 ft | 420 kts | 347° |
| 2026-04-24 00:23 | 44.66471 | 1.05275 | 32122 ft | 420 kts | 347° |
| 2026-04-24 00:23 | 44.72218 | 1.03744 | 32125 ft | 420 kts | 347° |
| 2026-04-24 00:24 | 44.77964 | 1.02209 | 32125 ft | 420 kts | 347° |
| 2026-04-24 00:24 | 44.83710 | 1.00672 | 32125 ft | 420 kts | 347° |
| 2026-04-24 00:25 | 44.89455 | 0.99130 | 32128 ft | 420 kts | 347° |
| 2026-04-24 00:25 | 44.95202 | 0.97582 | 32127 ft | 420 kts | 347° |
| 2026-04-24 00:26 | 45.00953 | 0.96035 | 32133 ft | 421 kts | 347° |
| 2026-04-24 00:26 | 45.06736 | 0.94480 | 32130 ft | 420 kts | 347° |
| 2026-04-24 00:27 | 45.12484 | 0.92928 | 32138 ft | 420 kts | 347° |
| 2026-04-24 00:27 | 45.18227 | 0.91373 | 32138 ft | 420 kts | 347° |
| 2026-04-24 00:28 | 45.23972 | 0.89823 | 32139 ft | 420 kts | 347° |
| 2026-04-24 00:28 | 45.29708 | 0.88270 | 32138 ft | 420 kts | 347° |
| 2026-04-24 00:29 | 45.34519 | 0.86962 | 32137 ft | 420 kts | 347° |
| 2026-04-24 00:29 | 45.40254 | 0.85389 | 32140 ft | 420 kts | 347° |
| 2026-04-24 00:30 | 45.45987 | 0.83816 | 32140 ft | 419 kts | 347° |
| 2026-04-24 00:30 | 45.51720 | 0.82252 | 32141 ft | 419 kts | 347° |
| 2026-04-24 00:31 | 45.57456 | 0.80679 | 32141 ft | 419 kts | 347° |
| 2026-04-24 00:31 | 45.63185 | 0.79099 | 32151 ft | 419 kts | 347° |
| 2026-04-24 00:32 | 45.68923 | 0.77525 | 32134 ft | 421 kts | 347° |
| 2026-04-24 00:32 | 45.74682 | 0.75934 | 32138 ft | 422 kts | 347° |
| 2026-04-24 00:33 | 45.80441 | 0.74343 | 32138 ft | 422 kts | 347° |
| 2026-04-24 00:33 | 45.86207 | 0.72750 | 32141 ft | 422 kts | 347° |
| 2026-04-24 00:34 | 45.91965 | 0.71146 | 32141 ft | 422 kts | 347° |
| 2026-04-24 00:34 | 45.97730 | 0.69540 | 32147 ft | 422 kts | 347° |
| 2026-04-24 00:35 | 46.03529 | 0.67930 | 32144 ft | 422 kts | 347° |
| 2026-04-24 00:35 | 46.09289 | 0.66318 | 32145 ft | 421 kts | 347° |
| 2026-04-24 00:36 | 46.15045 | 0.64699 | 32147 ft | 422 kts | 347° |
| 2026-04-24 00:36 | 46.20798 | 0.63081 | 32143 ft | 421 kts | 347° |
| 2026-04-24 00:37 | 46.26556 | 0.61448 | 32147 ft | 421 kts | 347° |
| 2026-04-24 00:37 | 46.32315 | 0.59835 | 32146 ft | 421 kts | 347° |
| 2026-04-24 00:38 | 46.38071 | 0.58217 | 32151 ft | 422 kts | 347° |
| 2026-04-24 00:38 | 46.43829 | 0.56581 | 32158 ft | 421 kts | 347° |
| 2026-04-24 00:39 | 46.49586 | 0.54943 | 32161 ft | 422 kts | 347° |
| 2026-04-24 00:39 | 46.55424 | 0.53653 | 32162 ft | 424 kts | 356° |
| 2026-04-24 00:40 | 46.61295 | 0.54781 | 32164 ft | 429 kts | 10° |
| 2026-04-24 00:40 | 46.67111 | 0.56712 | 32162 ft | 429 kts | 10° |
| 2026-04-24 00:41 | 46.72930 | 0.58625 | 32163 ft | 429 kts | 10° |
| 2026-04-24 00:41 | 46.78751 | 0.60539 | 32164 ft | 429 kts | 10° |
| 2026-04-24 00:42 | 46.84570 | 0.62464 | 32166 ft | 429 kts | 10° |
| 2026-04-24 00:42 | 46.90431 | 0.64414 | 32166 ft | 429 kts | 10° |
| 2026-04-24 00:43 | 46.96248 | 0.66353 | 32165 ft | 429 kts | 10° |
| 2026-04-24 00:43 | 47.02060 | 0.68305 | 32166 ft | 428 kts | 10° |
| 2026-04-24 00:44 | 47.07925 | 0.69511 | 32166 ft | 425 kts | 1° |
| 2026-04-24 00:44 | 47.13866 | 0.70119 | 32174 ft | 425 kts | 1° |
| 2026-04-24 00:45 | 47.19768 | 0.70721 | 32182 ft | 425 kts | 1° |
| 2026-04-24 00:45 | 47.25672 | 0.71341 | 32186 ft | 425 kts | 1° |
| 2026-04-24 00:46 | 47.31577 | 0.71965 | 32191 ft | 425 kts | 1° |
| 2026-04-24 00:46 | 47.37435 | 0.72590 | 32193 ft | 425 kts | 2° |
| 2026-04-24 00:47 | 47.43419 | 0.73227 | 32194 ft | 425 kts | 2° |
| 2026-04-24 00:47 | 47.49314 | 0.74012 | 32190 ft | 427 kts | 8° |
| 2026-04-24 00:48 | 47.55068 | 0.76552 | 32193 ft | 430 kts | 15° |
| 2026-04-24 00:48 | 47.60748 | 0.79356 | 32191 ft | 430 kts | 15° |
| 2026-04-24 00:49 | 47.66421 | 0.82161 | 32192 ft | 430 kts | 15° |
| 2026-04-24 00:49 | 47.72095 | 0.84963 | 32196 ft | 429 kts | 15° |
| 2026-04-24 00:50 | 47.77741 | 0.87757 | 32193 ft | 427 kts | 15° |
| 2026-04-24 00:50 | 47.83375 | 0.90551 | 32205 ft | 427 kts | 16° |
| 2026-04-24 00:51 | 47.89050 | 0.93389 | 32207 ft | 428 kts | 16° |
| 2026-04-24 00:51 | 47.94686 | 0.96245 | 32207 ft | 428 kts | 16° |
| 2026-04-24 00:52 | 48.00322 | 0.99112 | 32210 ft | 428 kts | 16° |
| 2026-04-24 00:52 | 48.06001 | 1.01999 | 32214 ft | 429 kts | 17° |
| 2026-04-24 00:53 | 48.11658 | 1.04870 | 32215 ft | 429 kts | 17° |
| 2026-04-24 00:53 | 48.17311 | 1.07754 | 32220 ft | 429 kts | 17° |
| 2026-04-24 00:54 | 48.22963 | 1.10647 | 32228 ft | 430 kts | 17° |
| 2026-04-24 00:54 | 48.28655 | 1.13543 | 32226 ft | 433 kts | 17° |
| 2026-04-24 00:55 | 48.33440 | 1.15977 | 32234 ft | 433 kts | 17° |
| 2026-04-24 00:55 | 48.39152 | 1.18896 | 32237 ft | 433 kts | 17° |
| 2026-04-24 00:56 | 48.44867 | 1.21830 | 32236 ft | 435 kts | 18° |
| 2026-04-24 00:56 | 48.50623 | 1.24801 | 32241 ft | 438 kts | 18° |
| 2026-04-24 00:57 | 48.56401 | 1.27779 | 32247 ft | 439 kts | 18° |
| 2026-04-24 00:58 | 48.65149 | 1.32188 | 32255 ft | 452 kts | 20° |
| 2026-04-24 00:58 | 48.71250 | 1.35250 | 32255 ft | 462 kts | 20° |
| 2026-04-24 00:59 | 48.77371 | 1.38337 | 32265 ft | 464 kts | 20° |
| 2026-04-24 00:59 | 48.83488 | 1.41450 | 32268 ft | 464 kts | 20° |
| 2026-04-24 01:00 | 48.89603 | 1.44569 | 32267 ft | 464 kts | 20° |
| 2026-04-24 01:00 | 48.95599 | 1.48118 | 32271 ft | 461 kts | 31° |
| 2026-04-24 01:01 | 49.00675 | 1.54007 | 32273 ft | 454 kts | 50° |
| 2026-04-24 01:01 | 49.04874 | 1.61185 | 32272 ft | 454 kts | 51° |
| 2026-04-24 01:02 | 49.09084 | 1.68385 | 32274 ft | 455 kts | 52° |
| 2026-04-24 01:02 | 49.13330 | 1.75660 | 32274 ft | 456 kts | 52° |
| 2026-04-24 01:03 | 49.17536 | 1.82910 | 32283 ft | 455 kts | 52° |
| 2026-04-24 01:03 | 49.21723 | 1.90167 | 32277 ft | 455 kts | 52° |
| 2026-04-24 01:04 | 49.25910 | 1.97445 | 32294 ft | 455 kts | 52° |
| 2026-04-24 01:04 | 49.30094 | 2.04719 | 32297 ft | 456 kts | 53° |
| 2026-04-24 01:05 | 49.34282 | 2.12027 | 32297 ft | 456 kts | 53° |
| 2026-04-24 01:05 | 49.38498 | 2.19393 | 32301 ft | 457 kts | 53° |
| 2026-04-24 01:06 | 49.42676 | 2.26726 | 32305 ft | 456 kts | 53° |
| 2026-04-24 01:06 | 49.46847 | 2.34057 | 32299 ft | 455 kts | 53° |
| 2026-04-24 01:07 | 49.51009 | 2.41399 | 32298 ft | 456 kts | 53° |
| 2026-04-24 01:07 | 49.55334 | 2.48555 | 32296 ft | 460 kts | 44° |
| 2026-04-24 01:08 | 49.60659 | 2.54145 | 32296 ft | 465 kts | 35° |
| 2026-04-24 01:08 | 49.66153 | 2.59447 | 32307 ft | 465 kts | 35° |
| 2026-04-24 01:09 | 49.71672 | 2.64800 | 32296 ft | 465 kts | 36° |
| 2026-04-24 01:09 | 49.77155 | 2.70148 | 32309 ft | 466 kts | 36° |
| 2026-04-24 01:10 | 49.82639 | 2.75500 | 32315 ft | 465 kts | 35° |
| 2026-04-24 01:10 | 49.88109 | 2.80843 | 32317 ft | 465 kts | 36° |
| 2026-04-24 01:11 | 49.93583 | 2.86212 | 32318 ft | 465 kts | 36° |
| 2026-04-24 01:11 | 49.99053 | 2.91596 | 32321 ft | 466 kts | 36° |
| 2026-04-24 01:12 | 50.04561 | 2.97029 | 32323 ft | 466 kts | 36° |
| 2026-04-24 01:12 | 50.10034 | 3.02448 | 32323 ft | 466 kts | 36° |
| 2026-04-24 01:13 | 50.15502 | 3.07872 | 32327 ft | 466 kts | 36° |
| 2026-04-24 01:13 | 50.20976 | 3.13311 | 32326 ft | 467 kts | 36° |
| 2026-04-24 01:14 | 50.26782 | 3.17931 | 32333 ft | 470 kts | 26° |
| 2026-04-24 01:14 | 50.32760 | 3.22111 | 32341 ft | 471 kts | 27° |
| 2026-04-24 01:15 | 50.38725 | 3.26308 | 32344 ft | 470 kts | 26° |
| 2026-04-24 01:15 | 50.44651 | 3.30634 | 32348 ft | 469 kts | 28° |
| 2026-04-24 01:16 | 50.50516 | 3.35286 | 32348 ft | 469 kts | 30° |
| 2026-04-24 01:16 | 50.56400 | 3.39753 | 32351 ft | 470 kts | 26° |
| 2026-04-24 01:17 | 50.62418 | 3.43817 | 32349 ft | 471 kts | 25° |
| 2026-04-24 01:17 | 50.68454 | 3.47838 | 32347 ft | 471 kts | 25° |
| 2026-04-24 01:18 | 50.74466 | 3.51955 | 32350 ft | 471 kts | 26° |
| 2026-04-24 01:18 | 50.80471 | 3.56144 | 32350 ft | 471 kts | 26° |
| 2026-04-24 01:19 | 50.86509 | 3.60372 | 32352 ft | 472 kts | 26° |
| 2026-04-24 01:19 | 50.92513 | 3.64577 | 32350 ft | 472 kts | 26° |
| 2026-04-24 01:20 | 50.98500 | 3.68840 | 32349 ft | 472 kts | 26° |
| 2026-04-24 01:20 | 51.04471 | 3.73162 | 32356 ft | 472 kts | 26° |
| 2026-04-24 01:21 | 51.09477 | 3.76788 | 32355 ft | 472 kts | 26° |
| 2026-04-24 01:21 | 51.15450 | 3.81109 | 32352 ft | 471 kts | 26° |
| 2026-04-24 01:22 | 51.21412 | 3.85436 | 32354 ft | 471 kts | 26° |
| 2026-04-24 01:22 | 51.27377 | 3.89781 | 32358 ft | 471 kts | 26° |
| 2026-04-24 01:23 | 51.33377 | 3.94163 | 32357 ft | 471 kts | 26° |
| 2026-04-24 01:23 | 51.39333 | 3.98543 | 32356 ft | 471 kts | 26° |
| 2026-04-24 01:24 | 51.45277 | 4.02925 | 32355 ft | 471 kts | 27° |
| 2026-04-24 01:24 | 51.50780 | 4.08636 | 32351 ft | 466 kts | 43° |
| 2026-04-24 01:25 | 51.55698 | 4.15453 | 32358 ft | 467 kts | 43° |
| 2026-04-24 01:25 | 51.60616 | 4.22288 | 32357 ft | 467 kts | 43° |
| 2026-04-24 01:26 | 51.65533 | 4.29121 | 32358 ft | 467 kts | 43° |
| 2026-04-24 01:26 | 51.70445 | 4.35977 | 32359 ft | 467 kts | 43° |
| 2026-04-24 01:27 | 51.75359 | 4.42852 | 32377 ft | 467 kts | 43° |
| 2026-04-24 01:27 | 51.80265 | 4.49744 | 32379 ft | 468 kts | 43° |
| 2026-04-24 01:28 | 51.85166 | 4.56654 | 32380 ft | 467 kts | 43° |
| 2026-04-24 01:28 | 51.90067 | 4.63581 | 32380 ft | 467 kts | 43° |
| 2026-04-24 01:29 | 51.94994 | 4.70563 | 32366 ft | 468 kts | 43° |
| 2026-04-24 01:29 | 51.99893 | 4.77523 | 32366 ft | 468 kts | 43° |
| 2026-04-24 01:30 | 52.04790 | 4.84508 | 32371 ft | 469 kts | 43° |
| 2026-04-24 01:30 | 52.09682 | 4.91514 | 32361 ft | 468 kts | 43° |
| 2026-04-24 01:31 | 52.14558 | 4.98499 | 32359 ft | 467 kts | 43° |
| 2026-04-24 01:31 | 52.19427 | 5.05492 | 32359 ft | 467 kts | 43° |
| 2026-04-24 01:32 | 52.24290 | 5.12522 | 32358 ft | 467 kts | 43° |
| 2026-04-24 01:32 | 52.29158 | 5.19574 | 32357 ft | 468 kts | 43° |
| 2026-04-24 01:33 | 52.34018 | 5.26632 | 32358 ft | 468 kts | 43° |
| 2026-04-24 01:33 | 52.38881 | 5.33706 | 32356 ft | 468 kts | 43° |
| 2026-04-24 01:34 | 52.43767 | 5.40847 | 32355 ft | 468 kts | 43° |
| 2026-04-24 01:34 | 52.48624 | 5.47972 | 32356 ft | 468 kts | 43° |
| 2026-04-24 01:35 | 52.53467 | 5.55091 | 32355 ft | 467 kts | 43° |
| 2026-04-24 01:35 | 52.58294 | 5.62212 | 32353 ft | 466 kts | 43° |
| 2026-04-24 01:36 | 52.63122 | 5.69339 | 32346 ft | 466 kts | 42° |
| 2026-04-24 01:36 | 52.67949 | 5.76489 | 32345 ft | 467 kts | 42° |
| 2026-04-24 01:37 | 52.72770 | 5.83669 | 32339 ft | 467 kts | 42° |
| 2026-04-24 01:37 | 52.77583 | 5.90859 | 32337 ft | 467 kts | 43° |
| 2026-04-24 01:38 | 52.82433 | 5.98117 | 32337 ft | 467 kts | 43° |
| 2026-04-24 01:38 | 52.87246 | 6.05348 | 32337 ft | 467 kts | 42° |
| 2026-04-24 01:39 | 52.92044 | 6.12588 | 32334 ft | 466 kts | 42° |
| 2026-04-24 01:39 | 52.96828 | 6.19835 | 32334 ft | 466 kts | 42° |
| 2026-04-24 01:40 | 53.01614 | 6.27080 | 32328 ft | 466 kts | 42° |
| 2026-04-24 01:40 | 53.06396 | 6.34345 | 32326 ft | 466 kts | 42° |
| 2026-04-24 01:41 | 53.11169 | 6.41635 | 32325 ft | 466 kts | 42° |
| 2026-04-24 01:41 | 53.15941 | 6.48946 | 32323 ft | 466 kts | 42° |
| 2026-04-24 01:42 | 53.20706 | 6.56270 | 32328 ft | 466 kts | 42° |
| 2026-04-24 01:42 | 53.25498 | 6.63662 | 32326 ft | 466 kts | 42° |
| 2026-04-24 01:43 | 53.30256 | 6.71008 | 32322 ft | 464 kts | 42° |
| 2026-04-24 01:43 | 53.34993 | 6.78341 | 32319 ft | 464 kts | 42° |
| 2026-04-24 01:44 | 53.39719 | 6.85687 | 32305 ft | 464 kts | 42° |
| 2026-04-24 01:44 | 53.44442 | 6.93057 | 32310 ft | 464 kts | 42° |
| 2026-04-24 01:45 | 53.49155 | 7.00438 | 32310 ft | 464 kts | 42° |
| 2026-04-24 01:45 | 53.53867 | 7.07844 | 32309 ft | 464 kts | 42° |
| 2026-04-24 01:46 | 53.58590 | 7.15280 | 32305 ft | 466 kts | 42° |
| 2026-04-24 01:46 | 53.63317 | 7.22743 | 32302 ft | 466 kts | 42° |
| 2026-04-24 01:47 | 53.68047 | 7.30240 | 32300 ft | 466 kts | 41° |
| 2026-04-24 01:47 | 53.72760 | 7.37750 | 32288 ft | 462 kts | 42° |
| 2026-04-24 01:48 | 53.77433 | 7.45209 | 32291 ft | 462 kts | 41° |
| 2026-04-24 01:48 | 53.81325 | 7.51431 | 32282 ft | 464 kts | 41° |
| 2026-04-24 01:49 | 53.86014 | 7.58965 | 32276 ft | 464 kts | 41° |
| 2026-04-24 01:49 | 53.90688 | 7.66500 | 32275 ft | 464 kts | 41° |
| 2026-04-24 01:50 | 53.95377 | 7.74066 | 32276 ft | 464 kts | 41° |
| 2026-04-24 01:50 | 54.00079 | 7.81692 | 32262 ft | 464 kts | 41° |
| 2026-04-24 01:51 | 54.04744 | 7.89284 | 32262 ft | 464 kts | 41° |
| 2026-04-24 01:51 | 54.09405 | 7.96889 | 32260 ft | 463 kts | 40° |
| 2026-04-24 01:52 | 54.14052 | 8.04488 | 32257 ft | 462 kts | 40° |
| 2026-04-24 01:52 | 54.18715 | 8.12151 | 32243 ft | 462 kts | 40° |
| 2026-04-24 01:53 | 54.23350 | 8.19789 | 32246 ft | 463 kts | 40° |
| 2026-04-24 01:53 | 54.28010 | 8.27503 | 32239 ft | 463 kts | 41° |
| 2026-04-24 01:54 | 54.32632 | 8.35180 | 32224 ft | 463 kts | 41° |
| 2026-04-24 01:54 | 54.37261 | 8.42867 | 32219 ft | 464 kts | 41° |
| 2026-04-24 01:55 | 54.41884 | 8.50573 | 32223 ft | 463 kts | 41° |
| 2026-04-24 01:55 | 54.46497 | 8.58306 | 32220 ft | 463 kts | 41° |
| 2026-04-24 01:56 | 54.51084 | 8.66039 | 32206 ft | 460 kts | 41° |
| 2026-04-24 01:56 | 54.55686 | 8.73793 | 32203 ft | 459 kts | 41° |
| 2026-04-24 01:57 | 54.60243 | 8.81495 | 32204 ft | 459 kts | 41° |
| 2026-04-24 01:57 | 54.64830 | 8.89276 | 32192 ft | 459 kts | 41° |
| 2026-04-24 01:58 | 54.69379 | 8.97023 | 32196 ft | 460 kts | 41° |
| 2026-04-24 01:58 | 54.73925 | 9.04795 | 32192 ft | 460 kts | 41° |
| 2026-04-24 01:59 | 54.78472 | 9.12600 | 32196 ft | 460 kts | 41° |
| 2026-04-24 01:59 | 54.83015 | 9.20412 | 32184 ft | 460 kts | 41° |
| 2026-04-24 02:00 | 54.87589 | 9.28305 | 32189 ft | 460 kts | 41° |
| 2026-04-24 02:00 | 54.92105 | 9.36135 | 32179 ft | 458 kts | 41° |
| 2026-04-24 02:01 | 54.96613 | 9.43974 | 32171 ft | 458 kts | 41° |
| 2026-04-24 02:01 | 55.01124 | 9.51828 | 32168 ft | 458 kts | 41° |
| 2026-04-24 02:02 | 55.05621 | 9.59695 | 32167 ft | 459 kts | 41° |
| 2026-04-24 02:02 | 55.09814 | 9.68119 | 32165 ft | 464 kts | 54° |
| 2026-04-24 02:03 | 55.13442 | 9.83885 | 32174 ft | 470 kts | 70° |
| 2026-04-24 02:03 | 55.15388 | 9.94806 | 32173 ft | 470 kts | 70° |
| 2026-04-24 02:04 | 55.17324 | 10.05720 | 32157 ft | 469 kts | 70° |
| 2026-04-24 02:04 | 55.19250 | 10.16632 | 32163 ft | 469 kts | 70° |
| 2026-04-24 02:05 | 55.21173 | 10.27624 | 32152 ft | 469 kts | 70° |
| 2026-04-24 02:05 | 55.23081 | 10.38563 | 32150 ft | 469 kts | 70° |
| 2026-04-24 02:06 | 55.24980 | 10.49503 | 32146 ft | 470 kts | 70° |
| 2026-04-24 02:06 | 55.26863 | 10.60475 | 32147 ft | 470 kts | 70° |
| 2026-04-24 02:07 | 55.27804 | 10.65984 | 31803 ft | 476 kts | 70° |
| 2026-04-24 02:07 | 55.28754 | 10.71541 | 31038 ft | 476 kts | 70° |
| 2026-04-24 02:07 | 55.29710 | 10.77115 | 30306 ft | 478 kts | 71° |
| 2026-04-24 02:07 | 55.30669 | 10.82714 | 29488 ft | 479 kts | 71° |
| 2026-04-24 02:08 | 55.31625 | 10.88325 | 28663 ft | 481 kts | 71° |
| 2026-04-24 02:08 | 55.32581 | 10.93955 | 27866 ft | 482 kts | 71° |
| 2026-04-24 02:08 | 55.33539 | 10.99613 | 27075 ft | 484 kts | 71° |
| 2026-04-24 02:08 | 55.34489 | 11.05278 | 26327 ft | 485 kts | 71° |
| 2026-04-24 02:09 | 55.35437 | 11.10984 | 25593 ft | 486 kts | 71° |
| 2026-04-24 02:09 | 55.36380 | 11.16698 | 24875 ft | 488 kts | 71° |
| 2026-04-24 02:09 | 55.37317 | 11.22394 | 23997 ft | 483 kts | 71° |
| 2026-04-24 02:09 | 55.38263 | 11.28151 | 22882 ft | 481 kts | 71° |
| 2026-04-24 02:10 | 55.39164 | 11.33691 | 22643 ft | 461 kts | 71° |
| 2026-04-24 02:10 | 55.40021 | 11.38995 | 22501 ft | 441 kts | 71° |
| 2026-04-24 02:10 | 55.40842 | 11.44079 | 22374 ft | 424 kts | 71° |
| 2026-04-24 02:10 | 55.41636 | 11.48993 | 22230 ft | 410 kts | 71° |
| 2026-04-24 02:11 | 55.42407 | 11.53758 | 22107 ft | 399 kts | 71° |
| 2026-04-24 02:11 | 55.43163 | 11.58376 | 21975 ft | 386 kts | 69° |
| 2026-04-24 02:11 | 55.44246 | 11.62567 | 21831 ft | 368 kts | 54° |
| 2026-04-24 02:11 | 55.45790 | 11.66025 | 21658 ft | 353 kts | 40° |
| 2026-04-24 02:12 | 55.47591 | 11.68889 | 21311 ft | 347 kts | 38° |
| 2026-04-24 02:12 | 55.49393 | 11.71690 | 20932 ft | 344 kts | 37° |
| 2026-04-24 02:12 | 55.51179 | 11.74464 | 20543 ft | 341 kts | 37° |
| 2026-04-24 02:12 | 55.52952 | 11.77230 | 20186 ft | 339 kts | 37° |
| 2026-04-24 02:13 | 55.54698 | 11.79973 | 19838 ft | 335 kts | 37° |
| 2026-04-24 02:13 | 55.56435 | 11.82711 | 19470 ft | 333 kts | 37° |
| 2026-04-24 02:13 | 55.58154 | 11.85420 | 19107 ft | 330 kts | 37° |
| 2026-04-24 02:13 | 55.59864 | 11.88119 | 18746 ft | 328 kts | 37° |
| 2026-04-24 02:14 | 55.61563 | 11.90797 | 18378 ft | 326 kts | 37° |
| 2026-04-24 02:14 | 55.63249 | 11.93456 | 17976 ft | 324 kts | 37° |
| 2026-04-24 02:14 | 55.64927 | 11.96110 | 17569 ft | 322 kts | 37° |
| 2026-04-24 02:14 | 55.66053 | 11.97893 | 17287 ft | 321 kts | 37° |
| 2026-04-24 02:15 | 55.68251 | 12.01381 | 16783 ft | 319 kts | 37° |
| 2026-04-24 02:15 | 55.69367 | 12.03151 | 16518 ft | 318 kts | 37° |
| 2026-04-24 02:15 | 55.71007 | 12.05758 | 16142 ft | 316 kts | 38° |
| 2026-04-24 02:15 | 55.72404 | 12.08781 | 15725 ft | 320 kts | 56° |
| 2026-04-24 02:16 | 55.73183 | 12.12494 | 15065 ft | 325 kts | 76° |
| 2026-04-24 02:16 | 55.73218 | 12.16517 | 14422 ft | 329 kts | 93° |
| 2026-04-24 02:16 | 55.72957 | 12.20535 | 13752 ft | 327 kts | 93° |
| 2026-04-24 02:16 | 55.72701 | 12.24531 | 13083 ft | 324 kts | 92° |
| 2026-04-24 02:17 | 55.72453 | 12.28476 | 12441 ft | 320 kts | 92° |
| 2026-04-24 02:17 | 55.72210 | 12.32365 | 11816 ft | 315 kts | 92° |
| 2026-04-24 02:17 | 55.71970 | 12.36209 | 11213 ft | 311 kts | 91° |
| 2026-04-24 02:17 | 55.71734 | 12.39998 | 10624 ft | 307 kts | 91° |
| 2026-04-24 02:18 | 55.71501 | 12.43739 | 10055 ft | 304 kts | 90° |
| 2026-04-24 02:18 | 55.71276 | 12.47449 | 9395 ft | 300 kts | 88° |
| 2026-04-24 02:18 | 55.71389 | 12.51061 | 8771 ft | 288 kts | 73° |
| 2026-04-24 02:18 | 55.71994 | 12.54372 | 8150 ft | 278 kts | 59° |
| 2026-04-24 02:19 | 55.72874 | 12.57448 | 7508 ft | 275 kts | 58° |
| 2026-04-24 02:19 | 55.73739 | 12.60465 | 6897 ft | 273 kts | 58° |
| 2026-04-24 02:19 | 55.74636 | 12.63404 | 6292 ft | 268 kts | 51° |
| 2026-04-24 02:19 | 55.75834 | 12.65857 | 5693 ft | 260 kts | 38° |
| 2026-04-24 02:20 | 55.77190 | 12.67956 | 5108 ft | 256 kts | 39° |
| 2026-04-24 02:20 | 55.78527 | 12.70025 | 4534 ft | 252 kts | 39° |
| 2026-04-24 02:20 | 55.79798 | 12.71978 | 4387 ft | 232 kts | 39° |
| 2026-04-24 02:20 | 55.80987 | 12.73822 | 4055 ft | 222 kts | 39° |
| 2026-04-24 02:21 | 55.82133 | 12.75629 | 4006 ft | 218 kts | 40° |
| 2026-04-24 02:21 | 55.83267 | 12.77436 | 4003 ft | 218 kts | 40° |
| 2026-04-24 02:21 | 55.84391 | 12.79246 | 3994 ft | 219 kts | 40° |
| 2026-04-24 02:21 | 55.85516 | 12.81072 | 3928 ft | 218 kts | 40° |
| 2026-04-24 02:22 | 55.86631 | 12.82910 | 3827 ft | 218 kts | 45° |
| 2026-04-24 02:22 | 55.87396 | 12.85218 | 3694 ft | 221 kts | 72° |
| 2026-04-24 02:22 | 55.87428 | 12.87966 | 3564 ft | 227 kts | 102° |
| 2026-04-24 02:22 | 55.86635 | 12.90407 | 3449 ft | 235 kts | 135° |
| 2026-04-24 02:23 | 55.85193 | 12.91773 | 3312 ft | 240 kts | 168° |
| 2026-04-24 02:23 | 55.83537 | 12.91575 | 3193 ft | 241 kts | 199° |
| 2026-04-24 02:23 | 55.81972 | 12.90567 | 3058 ft | 232 kts | 200° |
| 2026-04-24 02:23 | 55.80490 | 12.89624 | 2931 ft | 222 kts | 200° |
| 2026-04-24 02:24 | 55.79053 | 12.88720 | 2796 ft | 214 kts | 200° |
| 2026-04-24 02:24 | 55.77662 | 12.87848 | 2668 ft | 210 kts | 200° |
| 2026-04-24 02:24 | 55.76295 | 12.86983 | 2540 ft | 208 kts | 200° |
| 2026-04-24 02:24 | 55.74925 | 12.86018 | 2424 ft | 227 kts | 212° |
| 2026-04-24 02:25 | 55.73643 | 12.84171 | 2303 ft | 244 kts | 225° |
| 2026-04-24 02:25 | 55.72387 | 12.82106 | 2172 ft | 247 kts | 224° |
| 2026-04-24 02:25 | 55.71109 | 12.80083 | 2059 ft | 245 kts | 223° |
| 2026-04-24 02:25 | 55.69858 | 12.78135 | 1937 ft | 235 kts | 223° |
| 2026-04-24 02:26 | 55.68640 | 12.76240 | 1669 ft | 232 kts | 223° |
| 2026-04-24 02:26 | 55.67427 | 12.74352 | 1357 ft | 231 kts | 223° |
| 2026-04-24 02:26 | 55.66209 | 12.72458 | 1069 ft | 228 kts | 224° |
| 2026-04-24 02:26 | 55.65056 | 12.70667 | 727 ft | 212 kts | 224° |
| 2026-04-24 02:27 | 55.63995 | 12.69022 | 433 ft | 194 kts | 224° |
| 2026-04-24 02:27 | 55.63022 | 12.67512 | 195 ft | 180 kts | 224° |
| 2026-04-24 02:27 | 55.62119 | 12.66113 | 19 ft | 158 kts | 221° |
| 2026-04-24 02:27 | 55.61432 | 12.65053 | 21 ft | 86 kts | 220° |
| 2026-04-24 02:28 | 55.61299 | 12.64850 | 23 ft | 0 kts | 222° |
| 2026-04-24 02:28 | 55.61284 | 12.64818 | 23 ft | 5 kts | 233° |
| 2026-04-24 02:28 | 55.61258 | 12.64754 | 23 ft | 8 kts | 232° |
| 2026-04-24 02:28 | 55.61201 | 12.64748 | 25 ft | 9 kts | 139° |
| 2026-04-24 02:29 | 55.61225 | 12.64793 | 24 ft | 5 kts | 352° |
| 2026-04-24 02:29 | 55.61278 | 12.64761 | 23 ft | 11 kts | 336° |
| 2026-04-24 02:29 | 55.61357 | 12.64710 | 24 ft | 14 kts | 342° |
| 2026-04-24 02:29 | 55.61470 | 12.64651 | 19 ft | 20 kts | 344° |
| 2026-04-24 02:30 | 55.61547 | 12.64613 | 21 ft | 9 kts | 344° |
| 2026-04-24 02:30 | 55.61618 | 12.64592 | 22 ft | 12 kts | 354° |
| 2026-04-24 02:30 | 55.61717 | 12.64570 | 19 ft | 16 kts | 349° |
| 2026-04-24 02:30 | 55.61833 | 12.64528 | 21 ft | 18 kts | 349° |
| 2026-04-24 02:31 | 55.61965 | 12.64482 | 21 ft | 21 kts | 348° |
| 2026-04-24 02:31 | 55.62089 | 12.64443 | 22 ft | 12 kts | 349° |
| 2026-04-24 02:31 | 55.62194 | 12.64410 | 4 ft | 18 kts | 353° |
| 2026-04-24 02:31 | 55.62318 | 12.64411 | 20 ft | 19 kts | 22° |
| 2026-04-24 02:32 | 55.62441 | 12.64473 | 20 ft | 17 kts | 13° |
| 2026-04-24 02:32 | 55.62534 | 12.64381 | 22 ft | 17 kts | 303° |
| 2026-04-24 02:32 | 55.62623 | 12.64282 | 23 ft | 17 kts | 18° |
| 2026-04-24 02:32 | 55.62725 | 12.64353 | 21 ft | 7 kts | 22° |
| 2026-04-24 02:33 | 55.62765 | 12.64386 | 23 ft | 7 kts | 24° |
| 2026-04-24 02:33 | 55.62798 | 12.64333 | 21 ft | 5 kts | 284° |
| 2026-04-24 02:33 | 55.62798 | 12.64332 | 21 ft | 0 kts | 284° |